sensor_id;sensor_type;location;lat;lon;timestamp;temperature;humidity
79049;DHT22;68680;50.764;6.120;2023-06-22T00:01:17;20.70;83.60
79049;DHT22;68680;50.764;6.120;2023-06-22T00:03:43;20.70;82.00
79049;DHT22;68680;50.764;6.120;2023-06-22T00:06:10;20.70;82.20
79049;DHT22;68680;50.764;6.120;2023-06-22T00:08:36;20.70;83.50
79049;DHT22;68680;50.764;6.120;2023-06-22T00:11:01;20.70;82.90
79049;DHT22;68680;50.764;6.120;2023-06-22T00:13:27;20.60;83.60
79049;DHT22;68680;50.764;6.120;2023-06-22T00:15:53;20.60;83.90
79049;DHT22;68680;50.764;6.120;2023-06-22T00:18:19;20.50;83.70
79049;DHT22;68680;50.764;6.120;2023-06-22T00:20:45;20.50;84.90
79049;DHT22;68680;50.764;6.120;2023-06-22T00:23:12;20.40;84.10
79049;DHT22;68680;50.764;6.120;2023-06-22T00:25:38;20.40;84.30
79049;DHT22;68680;50.764;6.120;2023-06-22T00:28:04;20.40;85.90
79049;DHT22;68680;50.764;6.120;2023-06-22T00:30:30;20.30;84.90
79049;DHT22;68680;50.764;6.120;2023-06-22T00:32:57;20.30;85.20
79049;DHT22;68680;50.764;6.120;2023-06-22T00:35:23;20.30;86.10
79049;DHT22;68680;50.764;6.120;2023-06-22T00:37:49;20.30;86.00
79049;DHT22;68680;50.764;6.120;2023-06-22T00:40:16;20.20;86.10
79049;DHT22;68680;50.764;6.120;2023-06-22T00:42:42;20.20;87.00
79049;DHT22;68680;50.764;6.120;2023-06-22T00:45:08;20.20;85.60
79049;DHT22;68680;50.764;6.120;2023-06-22T00:47:35;20.20;86.60
79049;DHT22;68680;50.764;6.120;2023-06-22T00:50:06;20.20;85.80
79049;DHT22;68680;50.764;6.120;2023-06-22T00:52:33;20.20;85.70
79049;DHT22;68680;50.764;6.120;2023-06-22T00:55:01;20.20;85.50
79049;DHT22;68680;50.764;6.120;2023-06-22T00:57:29;20.20;85.60
79049;DHT22;68680;50.764;6.120;2023-06-22T00:59:56;20.10;85.80
79049;DHT22;68680;50.764;6.120;2023-06-22T01:02:21;20.10;86.60
79049;DHT22;68680;50.764;6.120;2023-06-22T01:04:47;20.10;88.40
79049;DHT22;68680;50.764;6.120;2023-06-22T01:07:20;20.00;88.60
79049;DHT22;68680;50.764;6.120;2023-06-22T01:09:59;20.00;90.30
79049;DHT22;68680;50.764;6.120;2023-06-22T01:12:34;19.90;90.20
79049;DHT22;68680;50.764;6.120;2023-06-22T01:15:11;19.90;90.30
79049;DHT22;68680;50.764;6.120;2023-06-22T01:17:41;19.80;90.40
79049;DHT22;68680;50.764;6.120;2023-06-22T01:20:10;19.70;90.50
79049;DHT22;68680;50.764;6.120;2023-06-22T01:22:49;19.70;90.60
79049;DHT22;68680;50.764;6.120;2023-06-22T01:25:38;19.80;90.80
79049;DHT22;68680;50.764;6.120;2023-06-22T01:28:29;19.70;90.80
79049;DHT22;68680;50.764;6.120;2023-06-22T01:31:03;19.60;91.10
79049;DHT22;68680;50.764;6.120;2023-06-22T01:33:31;19.50;91.10
79049;DHT22;68680;50.764;6.120;2023-06-22T01:36:00;19.50;91.60
79049;DHT22;68680;50.764;6.120;2023-06-22T01:38:27;19.50;91.30
79049;DHT22;68680;50.764;6.120;2023-06-22T01:40:54;19.40;91.80
79049;DHT22;68680;50.764;6.120;2023-06-22T01:43:22;19.40;91.70
79049;DHT22;68680;50.764;6.120;2023-06-22T01:45:51;19.40;91.90
79049;DHT22;68680;50.764;6.120;2023-06-22T01:48:19;19.40;92.10
79049;DHT22;68680;50.764;6.120;2023-06-22T01:50:46;19.40;92.00
79049;DHT22;68680;50.764;6.120;2023-06-22T01:53:12;19.40;92.20
79049;DHT22;68680;50.764;6.120;2023-06-22T01:55:38;19.30;92.40
79049;DHT22;68680;50.764;6.120;2023-06-22T01:58:04;19.30;92.30
79049;DHT22;68680;50.764;6.120;2023-06-22T02:00:32;19.40;92.70
79049;DHT22;68680;50.764;6.120;2023-06-22T02:03:09;19.30;92.60
79049;DHT22;68680;50.764;6.120;2023-06-22T02:05:45;19.20;92.80
79049;DHT22;68680;50.764;6.120;2023-06-22T02:08:20;19.20;92.50
79049;DHT22;68680;50.764;6.120;2023-06-22T02:10:49;19.10;92.30
79049;DHT22;68680;50.764;6.120;2023-06-22T02:13:18;19.20;92.20
79049;DHT22;68680;50.764;6.120;2023-06-22T02:15:45;19.20;92.40
79049;DHT22;68680;50.764;6.120;2023-06-22T02:18:14;19.20;92.60
79049;DHT22;68680;50.764;6.120;2023-06-22T02:20:40;19.20;92.50
79049;DHT22;68680;50.764;6.120;2023-06-22T02:23:06;19.10;92.50
79049;DHT22;68680;50.764;6.120;2023-06-22T02:25:32;19.10;92.80
79049;DHT22;68680;50.764;6.120;2023-06-22T02:27:58;19.10;92.70
79049;DHT22;68680;50.764;6.120;2023-06-22T02:30:24;19.10;92.90
79049;DHT22;68680;50.764;6.120;2023-06-22T02:32:50;19.10;93.10
79049;DHT22;68680;50.764;6.120;2023-06-22T02:35:17;19.10;93.50
79049;DHT22;68680;50.764;6.120;2023-06-22T02:37:43;19.10;93.30
79049;DHT22;68680;50.764;6.120;2023-06-22T02:40:09;19.00;93.40
79049;DHT22;68680;50.764;6.120;2023-06-22T02:42:36;19.10;93.30
79049;DHT22;68680;50.764;6.120;2023-06-22T02:45:02;19.10;93.20
79049;DHT22;68680;50.764;6.120;2023-06-22T02:47:29;19.10;93.10
79049;DHT22;68680;50.764;6.120;2023-06-22T02:49:54;19.10;93.00
79049;DHT22;68680;50.764;6.120;2023-06-22T02:52:22;19.10;93.20
79049;DHT22;68680;50.764;6.120;2023-06-22T02:54:47;19.10;93.30
79049;DHT22;68680;50.764;6.120;2023-06-22T02:57:13;19.10;93.10
79049;DHT22;68680;50.764;6.120;2023-06-22T02:59:39;19.10;92.80
79049;DHT22;68680;50.764;6.120;2023-06-22T03:02:05;19.10;92.80
79049;DHT22;68680;50.764;6.120;2023-06-22T03:04:31;19.10;92.80
79049;DHT22;68680;50.764;6.120;2023-06-22T03:06:56;19.20;92.50
79049;DHT22;68680;50.764;6.120;2023-06-22T03:09:23;19.20;92.40
79049;DHT22;68680;50.764;6.120;2023-06-22T03:11:49;19.30;91.80
79049;DHT22;68680;50.764;6.120;2023-06-22T03:14:15;19.30;91.60
79049;DHT22;68680;50.764;6.120;2023-06-22T03:16:41;19.30;91.20
79049;DHT22;68680;50.764;6.120;2023-06-22T03:19:06;19.30;91.10
79049;DHT22;68680;50.764;6.120;2023-06-22T03:21:32;19.40;90.90
79049;DHT22;68680;50.764;6.120;2023-06-22T03:23:58;19.30;90.80
79049;DHT22;68680;50.764;6.120;2023-06-22T03:26:25;19.40;91.70
79049;DHT22;68680;50.764;6.120;2023-06-22T03:28:51;19.40;92.10
79049;DHT22;68680;50.764;6.120;2023-06-22T03:31:16;19.30;92.00
79049;DHT22;68680;50.764;6.120;2023-06-22T03:33:42;19.30;91.90
79049;DHT22;68680;50.764;6.120;2023-06-22T03:36:08;19.30;92.20
79049;DHT22;68680;50.764;6.120;2023-06-22T03:38:34;19.30;92.30
79049;DHT22;68680;50.764;6.120;2023-06-22T03:40:59;19.20;92.70
79049;DHT22;68680;50.764;6.120;2023-06-22T03:43:26;19.20;93.30
79049;DHT22;68680;50.764;6.120;2023-06-22T03:45:52;19.20;93.00
79049;DHT22;68680;50.764;6.120;2023-06-22T03:48:18;19.20;92.70
79049;DHT22;68680;50.764;6.120;2023-06-22T03:50:44;19.20;92.50
79049;DHT22;68680;50.764;6.120;2023-06-22T03:53:10;19.20;92.30
79049;DHT22;68680;50.764;6.120;2023-06-22T03:55:35;19.20;92.10
79049;DHT22;68680;50.764;6.120;2023-06-22T03:58:01;19.30;92.30
79049;DHT22;68680;50.764;6.120;2023-06-22T04:00:28;19.20;91.80
79049;DHT22;68680;50.764;6.120;2023-06-22T04:02:54;19.30;91.60
79049;DHT22;68680;50.764;6.120;2023-06-22T04:05:20;19.30;91.10
79049;DHT22;68680;50.764;6.120;2023-06-22T04:07:46;19.30;91.40
79049;DHT22;68680;50.764;6.120;2023-06-22T04:10:12;19.30;91.80
79049;DHT22;68680;50.764;6.120;2023-06-22T04:12:37;19.30;92.20
79049;DHT22;68680;50.764;6.120;2023-06-22T04:15:04;19.30;92.60
79049;DHT22;68680;50.764;6.120;2023-06-22T04:17:32;19.30;92.90
79049;DHT22;68680;50.764;6.120;2023-06-22T04:19:58;19.30;92.90
79049;DHT22;68680;50.764;6.120;2023-06-22T04:22:23;19.30;93.00
79049;DHT22;68680;50.764;6.120;2023-06-22T04:24:49;19.30;92.90
79049;DHT22;68680;50.764;6.120;2023-06-22T04:27:15;19.20;93.00
79049;DHT22;68680;50.764;6.120;2023-06-22T04:29:40;19.20;93.10
79049;DHT22;68680;50.764;6.120;2023-06-22T04:32:07;19.20;93.50
79049;DHT22;68680;50.764;6.120;2023-06-22T04:34:34;19.20;93.50
79049;DHT22;68680;50.764;6.120;2023-06-22T04:37:00;19.30;93.60
79049;DHT22;68680;50.764;6.120;2023-06-22T04:39:26;19.30;93.40
79049;DHT22;68680;50.764;6.120;2023-06-22T04:41:51;19.30;93.00
79049;DHT22;68680;50.764;6.120;2023-06-22T04:44:18;19.30;93.00
79049;DHT22;68680;50.764;6.120;2023-06-22T04:46:44;19.30;93.10
79049;DHT22;68680;50.764;6.120;2023-06-22T04:49:10;19.40;92.80
79049;DHT22;68680;50.764;6.120;2023-06-22T04:51:39;19.40;92.90
79049;DHT22;68680;50.764;6.120;2023-06-22T04:54:07;19.40;92.60
79049;DHT22;68680;50.764;6.120;2023-06-22T04:56:33;19.50;93.10
79049;DHT22;68680;50.764;6.120;2023-06-22T04:58:59;19.50;92.80
79049;DHT22;68680;50.764;6.120;2023-06-22T05:01:26;19.60;92.90
79049;DHT22;68680;50.764;6.120;2023-06-22T05:03:52;19.60;91.60
79049;DHT22;68680;50.764;6.120;2023-06-22T05:06:18;19.70;91.80
79049;DHT22;68680;50.764;6.120;2023-06-22T05:08:45;19.70;91.80
79049;DHT22;68680;50.764;6.120;2023-06-22T05:11:11;19.80;91.10
79049;DHT22;68680;50.764;6.120;2023-06-22T05:13:36;19.80;90.30
79049;DHT22;68680;50.764;6.120;2023-06-22T05:16:02;19.80;90.60
79049;DHT22;68680;50.764;6.120;2023-06-22T05:18:29;19.90;90.10
79049;DHT22;68680;50.764;6.120;2023-06-22T05:20:55;20.00;89.60
79049;DHT22;68680;50.764;6.120;2023-06-22T05:23:21;19.90;90.40
79049;DHT22;68680;50.764;6.120;2023-06-22T05:25:48;19.90;90.30
79049;DHT22;68680;50.764;6.120;2023-06-22T05:28:13;20.00;90.60
79049;DHT22;68680;50.764;6.120;2023-06-22T05:30:39;20.00;90.70
79049;DHT22;68680;50.764;6.120;2023-06-22T05:33:05;20.00;90.80
79049;DHT22;68680;50.764;6.120;2023-06-22T05:35:31;20.00;90.80
79049;DHT22;68680;50.764;6.120;2023-06-22T05:37:56;20.00;90.90
79049;DHT22;68680;50.764;6.120;2023-06-22T05:40:22;20.00;91.00
79049;DHT22;68680;50.764;6.120;2023-06-22T05:42:49;20.10;91.00
79049;DHT22;68680;50.764;6.120;2023-06-22T05:45:15;20.10;90.30
79049;DHT22;68680;50.764;6.120;2023-06-22T05:47:41;20.10;90.50
79049;DHT22;68680;50.764;6.120;2023-06-22T05:50:07;20.20;90.30
79049;DHT22;68680;50.764;6.120;2023-06-22T05:52:33;20.20;90.40
79049;DHT22;68680;50.764;6.120;2023-06-22T05:54:59;20.30;90.20
79049;DHT22;68680;50.764;6.120;2023-06-22T05:57:24;20.30;90.10
79049;DHT22;68680;50.764;6.120;2023-06-22T05:59:52;20.30;90.60
79049;DHT22;68680;50.764;6.120;2023-06-22T06:02:17;20.30;90.80
79049;DHT22;68680;50.764;6.120;2023-06-22T06:04:43;20.30;90.70
79049;DHT22;68680;50.764;6.120;2023-06-22T06:07:09;20.40;90.20
79049;DHT22;68680;50.764;6.120;2023-06-22T06:09:34;20.40;90.40
79049;DHT22;68680;50.764;6.120;2023-06-22T06:12:00;20.40;90.60
79049;DHT22;68680;50.764;6.120;2023-06-22T06:14:26;20.30;90.60
79049;DHT22;68680;50.764;6.120;2023-06-22T06:16:53;20.40;90.50
79049;DHT22;68680;50.764;6.120;2023-06-22T06:19:19;20.40;90.90
79049;DHT22;68680;50.764;6.120;2023-06-22T06:21:45;20.40;90.10
79049;DHT22;68680;50.764;6.120;2023-06-22T06:24:11;20.50;88.90
79049;DHT22;68680;50.764;6.120;2023-06-22T06:26:37;20.60;88.20
79049;DHT22;68680;50.764;6.120;2023-06-22T06:29:03;20.60;87.50
79049;DHT22;68680;50.764;6.120;2023-06-22T06:31:28;20.60;86.70
79049;DHT22;68680;50.764;6.120;2023-06-22T06:33:56;20.70;88.00
79049;DHT22;68680;50.764;6.120;2023-06-22T06:36:21;20.80;86.10
79049;DHT22;68680;50.764;6.120;2023-06-22T06:38:47;20.80;86.70
79049;DHT22;68680;50.764;6.120;2023-06-22T06:41:13;20.90;87.20
79049;DHT22;68680;50.764;6.120;2023-06-22T06:43:39;20.90;86.60
79049;DHT22;68680;50.764;6.120;2023-06-22T06:46:05;20.90;85.90
79049;DHT22;68680;50.764;6.120;2023-06-22T06:48:30;21.00;85.70
79049;DHT22;68680;50.764;6.120;2023-06-22T06:50:58;21.00;84.50
79049;DHT22;68680;50.764;6.120;2023-06-22T06:53:23;21.10;85.00
79049;DHT22;68680;50.764;6.120;2023-06-22T06:55:49;21.20;83.40
79049;DHT22;68680;50.764;6.120;2023-06-22T06:58:15;21.30;83.40
79049;DHT22;68680;50.764;6.120;2023-06-22T07:00:41;21.30;84.20
79049;DHT22;68680;50.764;6.120;2023-06-22T07:03:07;21.30;84.40
79049;DHT22;68680;50.764;6.120;2023-06-22T07:05:32;21.40;84.40
79049;DHT22;68680;50.764;6.120;2023-06-22T07:07:59;21.50;85.30
79049;DHT22;68680;50.764;6.120;2023-06-22T07:10:25;21.60;84.30
79049;DHT22;68680;50.764;6.120;2023-06-22T07:12:51;21.60;84.20
79049;DHT22;68680;50.764;6.120;2023-06-22T07:15:17;21.70;84.10
79049;DHT22;68680;50.764;6.120;2023-06-22T07:17:43;21.80;83.30
79049;DHT22;68680;50.764;6.120;2023-06-22T07:20:10;21.90;82.60
79049;DHT22;68680;50.764;6.120;2023-06-22T07:22:36;21.90;83.20
79049;DHT22;68680;50.764;6.120;2023-06-22T07:25:04;22.00;82.90
79049;DHT22;68680;50.764;6.120;2023-06-22T07:27:31;22.00;83.20
79049;DHT22;68680;50.764;6.120;2023-06-22T07:29:57;22.10;81.60
79049;DHT22;68680;50.764;6.120;2023-06-22T07:32:22;22.20;80.00
79049;DHT22;68680;50.764;6.120;2023-06-22T07:34:48;22.30;80.00
79049;DHT22;68680;50.764;6.120;2023-06-22T07:37:14;22.40;80.00
79049;DHT22;68680;50.764;6.120;2023-06-22T07:39:40;22.50;80.50
79049;DHT22;68680;50.764;6.120;2023-06-22T07:42:07;22.50;81.00
79049;DHT22;68680;50.764;6.120;2023-06-22T07:44:33;22.50;81.20
79049;DHT22;68680;50.764;6.120;2023-06-22T07:46:59;22.50;81.60
79049;DHT22;68680;50.764;6.120;2023-06-22T07:49:24;22.50;81.00
79049;DHT22;68680;50.764;6.120;2023-06-22T07:51:50;22.60;81.50
79049;DHT22;68680;50.764;6.120;2023-06-22T07:54:16;22.50;82.20
79049;DHT22;68680;50.764;6.120;2023-06-22T07:56:42;22.50;81.50
79049;DHT22;68680;50.764;6.120;2023-06-22T07:59:09;22.40;81.50
79049;DHT22;68680;50.764;6.120;2023-06-22T08:01:35;22.50;82.70
79049;DHT22;68680;50.764;6.120;2023-06-22T08:04:00;22.50;82.60
79049;DHT22;68680;50.764;6.120;2023-06-22T08:06:26;22.60;81.80
79049;DHT22;68680;50.764;6.120;2023-06-22T08:08:52;22.60;81.90
79049;DHT22;68680;50.764;6.120;2023-06-22T08:11:18;22.70;82.40
79049;DHT22;68680;50.764;6.120;2023-06-22T08:13:43;22.80;81.30
79049;DHT22;68680;50.764;6.120;2023-06-22T08:16:11;22.80;81.00
79049;DHT22;68680;50.764;6.120;2023-06-22T08:18:36;22.80;82.20
79049;DHT22;68680;50.764;6.120;2023-06-22T08:21:02;22.80;81.80
79049;DHT22;68680;50.764;6.120;2023-06-22T08:23:28;22.90;81.80
79049;DHT22;68680;50.764;6.120;2023-06-22T08:25:54;23.00;82.50
79049;DHT22;68680;50.764;6.120;2023-06-22T08:28:19;23.00;81.40
79049;DHT22;68680;50.764;6.120;2023-06-22T08:30:45;23.00;82.50
79049;DHT22;68680;50.764;6.120;2023-06-22T08:33:12;23.00;82.30
79049;DHT22;68680;50.764;6.120;2023-06-22T08:35:38;23.10;83.50
79049;DHT22;68680;50.764;6.120;2023-06-22T08:38:04;23.20;82.50
79049;DHT22;68680;50.764;6.120;2023-06-22T08:40:30;23.30;80.90
79049;DHT22;68680;50.764;6.120;2023-06-22T08:42:55;23.50;81.60
79049;DHT22;68680;50.764;6.120;2023-06-22T08:45:21;23.50;80.50
79049;DHT22;68680;50.764;6.120;2023-06-22T08:47:47;23.60;81.00
79049;DHT22;68680;50.764;6.120;2023-06-22T08:50:14;23.70;80.50
79049;DHT22;68680;50.764;6.120;2023-06-22T08:52:40;23.80;80.50
79049;DHT22;68680;50.764;6.120;2023-06-22T08:55:07;23.80;79.90
79049;DHT22;68680;50.764;6.120;2023-06-22T08:57:33;23.90;79.90
79049;DHT22;68680;50.764;6.120;2023-06-22T08:59:59;24.00;78.90
79049;DHT22;68680;50.764;6.120;2023-06-22T09:02:25;24.10;78.50
79049;DHT22;68680;50.764;6.120;2023-06-22T09:04:51;24.20;78.20
79049;DHT22;68680;50.764;6.120;2023-06-22T09:07:18;24.40;77.40
79049;DHT22;68680;50.764;6.120;2023-06-22T09:09:44;24.40;77.10
79049;DHT22;68680;50.764;6.120;2023-06-22T09:12:10;24.50;76.90
79049;DHT22;68680;50.764;6.120;2023-06-22T09:14:36;24.50;77.00
79049;DHT22;68680;50.764;6.120;2023-06-22T09:17:01;24.60;76.30
79049;DHT22;68680;50.764;6.120;2023-06-22T09:19:27;24.60;77.20
79049;DHT22;68680;50.764;6.120;2023-06-22T09:21:53;24.60;76.40
79049;DHT22;68680;50.764;6.120;2023-06-22T09:24:20;24.70;77.00
79049;DHT22;68680;50.764;6.120;2023-06-22T09:26:46;24.60;77.40
79049;DHT22;68680;50.764;6.120;2023-06-22T09:29:11;24.50;77.50
79049;DHT22;68680;50.764;6.120;2023-06-22T09:31:37;24.50;78.00
79049;DHT22;68680;50.764;6.120;2023-06-22T09:34:03;24.40;77.30
79049;DHT22;68680;50.764;6.120;2023-06-22T09:36:29;24.30;77.50
79049;DHT22;68680;50.764;6.120;2023-06-22T09:38:54;24.30;78.60
79049;DHT22;68680;50.764;6.120;2023-06-22T09:41:22;24.10;79.60
79049;DHT22;68680;50.764;6.120;2023-06-22T09:43:48;24.10;80.20
79049;DHT22;68680;50.764;6.120;2023-06-22T09:46:14;24.00;80.10
79049;DHT22;68680;50.764;6.120;2023-06-22T09:48:40;23.90;80.40
79049;DHT22;68680;50.764;6.120;2023-06-22T09:51:06;23.80;80.10
79049;DHT22;68680;50.764;6.120;2023-06-22T09:53:32;23.80;80.30
79049;DHT22;68680;50.764;6.120;2023-06-22T09:55:58;23.80;81.90
79049;DHT22;68680;50.764;6.120;2023-06-22T09:58:25;23.60;89.60
79049;DHT22;68680;50.764;6.120;2023-06-22T10:00:50;23.30;92.20
79049;DHT22;68680;50.764;6.120;2023-06-22T10:03:16;22.90;94.90
79049;DHT22;68680;50.764;6.120;2023-06-22T10:05:42;22.60;97.50
79049;DHT22;68680;50.764;6.120;2023-06-22T10:08:09;22.30;98.50
79049;DHT22;68680;50.764;6.120;2023-06-22T10:10:34;22.10;99.20
79049;DHT22;68680;50.764;6.120;2023-06-22T10:13:08;21.90;99.90
79049;DHT22;68680;50.764;6.120;2023-06-22T10:15:36;21.70;99.90
79049;DHT22;68680;50.764;6.120;2023-06-22T10:18:02;21.50;99.90
79049;DHT22;68680;50.764;6.120;2023-06-22T10:20:28;21.30;99.90
79049;DHT22;68680;50.764;6.120;2023-06-22T10:22:54;21.10;99.90
79049;DHT22;68680;50.764;6.120;2023-06-22T10:25:20;21.00;99.90
79049;DHT22;68680;50.764;6.120;2023-06-22T10:27:46;21.00;99.90
79049;DHT22;68680;50.764;6.120;2023-06-22T10:30:13;20.80;99.90
79049;DHT22;68680;50.764;6.120;2023-06-22T10:32:41;20.70;99.90
79049;DHT22;68680;50.764;6.120;2023-06-22T10:35:08;20.70;99.90
79049;DHT22;68680;50.764;6.120;2023-06-22T10:37:35;20.70;99.90
79049;DHT22;68680;50.764;6.120;2023-06-22T10:40:01;20.80;99.90
79049;DHT22;68680;50.764;6.120;2023-06-22T10:42:27;20.80;99.90
79049;DHT22;68680;50.764;6.120;2023-06-22T10:44:53;20.80;99.90
79049;DHT22;68680;50.764;6.120;2023-06-22T10:47:19;20.90;99.90
79049;DHT22;68680;50.764;6.120;2023-06-22T10:49:46;20.90;99.90
79049;DHT22;68680;50.764;6.120;2023-06-22T10:52:11;21.00;99.90
79049;DHT22;68680;50.764;6.120;2023-06-22T10:54:38;21.10;99.90
79049;DHT22;68680;50.764;6.120;2023-06-22T10:57:04;21.20;99.90
79049;DHT22;68680;50.764;6.120;2023-06-22T10:59:30;21.30;99.90
79049;DHT22;68680;50.764;6.120;2023-06-22T11:01:56;21.40;99.90
79049;DHT22;68680;50.764;6.120;2023-06-22T11:04:22;21.40;99.90
79049;DHT22;68680;50.764;6.120;2023-06-22T11:06:49;21.40;99.90
79049;DHT22;68680;50.764;6.120;2023-06-22T11:09:15;21.50;99.90
79049;DHT22;68680;50.764;6.120;2023-06-22T11:11:41;21.50;99.90
79049;DHT22;68680;50.764;6.120;2023-06-22T11:14:07;21.60;99.90
79049;DHT22;68680;50.764;6.120;2023-06-22T11:16:33;21.80;99.90
79049;DHT22;68680;50.764;6.120;2023-06-22T11:18:59;21.90;99.90
79049;DHT22;68680;50.764;6.120;2023-06-22T11:21:24;22.00;99.90
79049;DHT22;68680;50.764;6.120;2023-06-22T11:23:51;22.30;99.90
79049;DHT22;68680;50.764;6.120;2023-06-22T11:26:17;22.50;99.90
79049;DHT22;68680;50.764;6.120;2023-06-22T11:28:43;22.70;99.90
79049;DHT22;68680;50.764;6.120;2023-06-22T11:31:09;22.80;99.90
79049;DHT22;68680;50.764;6.120;2023-06-22T11:33:34;22.80;99.90
79049;DHT22;68680;50.764;6.120;2023-06-22T11:36:00;22.80;99.90
79049;DHT22;68680;50.764;6.120;2023-06-22T11:38:26;22.90;99.90
79049;DHT22;68680;50.764;6.120;2023-06-22T11:40:53;22.90;99.90
79049;DHT22;68680;50.764;6.120;2023-06-22T11:43:19;23.10;99.90
79049;DHT22;68680;50.764;6.120;2023-06-22T11:45:45;23.10;99.90
79049;DHT22;68680;50.764;6.120;2023-06-22T11:48:10;23.00;99.90
79049;DHT22;68680;50.764;6.120;2023-06-22T11:50:36;23.00;99.90
79049;DHT22;68680;50.764;6.120;2023-06-22T11:53:02;22.90;99.90
79049;DHT22;68680;50.764;6.120;2023-06-22T11:55:28;22.90;99.90
79049;DHT22;68680;50.764;6.120;2023-06-22T11:57:56;22.90;99.90
79049;DHT22;68680;50.764;6.120;2023-06-22T12:00:23;22.80;99.90
79049;DHT22;68680;50.764;6.120;2023-06-22T12:02:48;22.80;99.90
79049;DHT22;68680;50.764;6.120;2023-06-22T12:05:14;22.80;99.90
79049;DHT22;68680;50.764;6.120;2023-06-22T12:07:40;22.80;99.90
79049;DHT22;68680;50.764;6.120;2023-06-22T12:10:07;22.80;99.90
79049;DHT22;68680;50.764;6.120;2023-06-22T12:12:33;22.80;99.90
79049;DHT22;68680;50.764;6.120;2023-06-22T12:15:00;22.80;99.90
79049;DHT22;68680;50.764;6.120;2023-06-22T12:17:26;22.80;99.90
79049;DHT22;68680;50.764;6.120;2023-06-22T12:19:52;22.90;99.90
79049;DHT22;68680;50.764;6.120;2023-06-22T12:22:18;22.80;99.90
79049;DHT22;68680;50.764;6.120;2023-06-22T12:24:43;22.90;99.90
79049;DHT22;68680;50.764;6.120;2023-06-22T12:27:09;23.20;99.90
79049;DHT22;68680;50.764;6.120;2023-06-22T12:29:35;23.70;98.10
79049;DHT22;68680;50.764;6.120;2023-06-22T12:32:03;23.90;97.40
79049;DHT22;68680;50.764;6.120;2023-06-22T12:34:29;24.00;97.50
79049;DHT22;68680;50.764;6.120;2023-06-22T12:36:55;24.10;96.60
79049;DHT22;68680;50.764;6.120;2023-06-22T12:39:21;24.00;97.20
79049;DHT22;68680;50.764;6.120;2023-06-22T12:41:46;23.90;97.20
79049;DHT22;68680;50.764;6.120;2023-06-22T12:44:12;23.70;96.40
79049;DHT22;68680;50.764;6.120;2023-06-22T12:46:38;23.50;97.20
79049;DHT22;68680;50.764;6.120;2023-06-22T12:49:05;23.40;98.60
79049;DHT22;68680;50.764;6.120;2023-06-22T12:51:31;23.40;98.30
79049;DHT22;68680;50.764;6.120;2023-06-22T12:53:57;23.40;99.10
79049;DHT22;68680;50.764;6.120;2023-06-22T12:56:22;23.30;99.70
79049;DHT22;68680;50.764;6.120;2023-06-22T12:58:48;23.20;98.20
79049;DHT22;68680;50.764;6.120;2023-06-22T13:01:14;23.10;99.60
79049;DHT22;68680;50.764;6.120;2023-06-22T13:03:42;23.10;99.90
79049;DHT22;68680;50.764;6.120;2023-06-22T13:06:09;23.00;99.90
79049;DHT22;68680;50.764;6.120;2023-06-22T13:08:34;22.90;99.90
79049;DHT22;68680;50.764;6.120;2023-06-22T13:11:00;22.80;99.90
79049;DHT22;68680;50.764;6.120;2023-06-22T13:13:26;22.60;99.90
79049;DHT22;68680;50.764;6.120;2023-06-22T13:15:52;22.60;99.90
79049;DHT22;68680;50.764;6.120;2023-06-22T13:18:20;22.50;99.90
79049;DHT22;68680;50.764;6.120;2023-06-22T13:20:46;22.40;99.90
79049;DHT22;68680;50.764;6.120;2023-06-22T13:23:13;22.40;99.90
79049;DHT22;68680;50.764;6.120;2023-06-22T13:25:39;22.30;99.90
79049;DHT22;68680;50.764;6.120;2023-06-22T13:28:05;22.20;99.90
79049;DHT22;68680;50.764;6.120;2023-06-22T13:30:30;22.20;99.90
79049;DHT22;68680;50.764;6.120;2023-06-22T13:32:56;22.10;99.90
79049;DHT22;68680;50.764;6.120;2023-06-22T13:35:22;22.10;99.90
79049;DHT22;68680;50.764;6.120;2023-06-22T13:37:48;22.10;99.90
79049;DHT22;68680;50.764;6.120;2023-06-22T13:40:15;22.00;99.90
79049;DHT22;68680;50.764;6.120;2023-06-22T13:42:42;22.10;99.90
79049;DHT22;68680;50.764;6.120;2023-06-22T13:45:08;22.00;99.90
79049;DHT22;68680;50.764;6.120;2023-06-22T13:47:34;22.00;99.90
79049;DHT22;68680;50.764;6.120;2023-06-22T13:50:00;22.00;99.90
79049;DHT22;68680;50.764;6.120;2023-06-22T13:52:26;22.00;99.90
79049;DHT22;68680;50.764;6.120;2023-06-22T13:54:52;22.00;99.90
79049;DHT22;68680;50.764;6.120;2023-06-22T13:57:19;21.90;99.90
79049;DHT22;68680;50.764;6.120;2023-06-22T13:59:45;21.90;99.90
79049;DHT22;68680;50.764;6.120;2023-06-22T14:02:11;21.90;99.90
79049;DHT22;68680;50.764;6.120;2023-06-22T14:04:37;21.80;99.90
79049;DHT22;68680;50.764;6.120;2023-06-22T14:07:03;21.80;99.90
79049;DHT22;68680;50.764;6.120;2023-06-22T14:09:29;21.80;99.90
79049;DHT22;68680;50.764;6.120;2023-06-22T14:11:55;21.80;99.90
79049;DHT22;68680;50.764;6.120;2023-06-22T14:14:22;21.70;99.90
79049;DHT22;68680;50.764;6.120;2023-06-22T14:16:48;21.70;99.90
79049;DHT22;68680;50.764;6.120;2023-06-22T14:19:14;21.70;99.90
79049;DHT22;68680;50.764;6.120;2023-06-22T14:21:39;21.70;99.90
79049;DHT22;68680;50.764;6.120;2023-06-22T14:24:05;21.60;99.90
79049;DHT22;68680;50.764;6.120;2023-06-22T14:26:31;21.70;99.90
79049;DHT22;68680;50.764;6.120;2023-06-22T14:28:57;21.70;99.90
79049;DHT22;68680;50.764;6.120;2023-06-22T14:31:24;21.70;99.90
79049;DHT22;68680;50.764;6.120;2023-06-22T14:33:50;21.70;99.90
79049;DHT22;68680;50.764;6.120;2023-06-22T14:36:16;21.70;99.90
79049;DHT22;68680;50.764;6.120;2023-06-22T14:38:42;21.70;99.90
79049;DHT22;68680;50.764;6.120;2023-06-22T14:41:08;21.60;99.90
79049;DHT22;68680;50.764;6.120;2023-06-22T14:43:34;21.60;99.90
79049;DHT22;68680;50.764;6.120;2023-06-22T14:46:00;21.60;99.90
79049;DHT22;68680;50.764;6.120;2023-06-22T14:48:27;21.60;99.90
79049;DHT22;68680;50.764;6.120;2023-06-22T14:50:53;21.60;99.90
79049;DHT22;68680;50.764;6.120;2023-06-22T14:53:19;21.50;99.90
79049;DHT22;68680;50.764;6.120;2023-06-22T14:55:45;21.50;99.90
79049;DHT22;68680;50.764;6.120;2023-06-22T14:58:11;21.40;99.90
79049;DHT22;68680;50.764;6.120;2023-06-22T15:00:37;21.20;99.90
79049;DHT22;68680;50.764;6.120;2023-06-22T15:03:04;21.00;99.90
79049;DHT22;68680;50.764;6.120;2023-06-22T15:05:32;20.90;99.90
79049;DHT22;68680;50.764;6.120;2023-06-22T15:07:57;20.70;99.90
79049;DHT22;68680;50.764;6.120;2023-06-22T15:10:24;20.60;99.90
79049;DHT22;68680;50.764;6.120;2023-06-22T15:12:50;20.50;99.90
79049;DHT22;68680;50.764;6.120;2023-06-22T15:15:16;20.40;99.90
79049;DHT22;68680;50.764;6.120;2023-06-22T15:17:41;20.40;99.90
79049;DHT22;68680;50.764;6.120;2023-06-22T15:20:08;20.50;99.90
79049;DHT22;68680;50.764;6.120;2023-06-22T15:22:35;20.50;99.90
79049;DHT22;68680;50.764;6.120;2023-06-22T15:25:01;20.40;99.90